sensor_id;sensor_type;location;lat;lon;timestamp;pressure;altitude;pressure_sealevel;temperature;humidity
73516;BME280;61763;51.416;5.442;2024-02-26T00:00:30;99704.41;;;5.93;100.00
73516;BME280;61763;51.416;5.442;2024-02-26T00:02:55;99698.59;;;5.85;100.00
73516;BME280;61763;51.416;5.442;2024-02-26T00:05:21;99702.91;;;5.87;100.00
73516;BME280;61763;51.416;5.442;2024-02-26T00:07:46;99703.13;;;5.83;100.00
73516;BME280;61763;51.416;5.442;2024-02-26T00:10:13;99710.94;;;5.87;100.00
73516;BME280;61763;51.416;5.442;2024-02-26T00:12:39;99707.84;;;5.77;100.00
73516;BME280;61763;51.416;5.442;2024-02-26T00:15:06;99703.38;;;5.78;100.00
73516;BME280;61763;51.416;5.442;2024-02-26T00:17:31;99706.97;;;5.77;100.00
73516;BME280;61763;51.416;5.442;2024-02-26T00:19:57;99700.13;;;5.71;100.00
73516;BME280;61763;51.416;5.442;2024-02-26T00:22:22;99701.78;;;5.74;100.00
73516;BME280;61763;51.416;5.442;2024-02-26T00:24:47;99696.25;;;5.77;100.00
73516;BME280;61763;51.416;5.442;2024-02-26T00:27:13;99701.13;;;5.69;100.00
73516;BME280;61763;51.416;5.442;2024-02-26T00:29:38;99702.34;;;5.81;100.00
73516;BME280;61763;51.416;5.442;2024-02-26T00:32:04;99705.56;;;5.70;100.00
73516;BME280;61763;51.416;5.442;2024-02-26T00:34:30;99704.75;;;5.68;100.00
73516;BME280;61763;51.416;5.442;2024-02-26T00:36:56;99701.44;;;5.63;100.00
73516;BME280;61763;51.416;5.442;2024-02-26T00:39:21;99690.06;;;5.57;100.00
73516;BME280;61763;51.416;5.442;2024-02-26T00:41:46;99685.66;;;5.56;100.00
73516;BME280;61763;51.416;5.442;2024-02-26T00:44:12;99688.56;;;5.52;100.00
73516;BME280;61763;51.416;5.442;2024-02-26T00:46:38;99694.78;;;5.52;100.00
73516;BME280;61763;51.416;5.442;2024-02-26T00:49:04;99682.28;;;5.53;100.00
73516;BME280;61763;51.416;5.442;2024-02-26T00:51:29;99684.16;;;5.51;100.00
73516;BME280;61763;51.416;5.442;2024-02-26T00:53:55;99681.19;;;5.57;100.00
73516;BME280;61763;51.416;5.442;2024-02-26T00:56:21;99681.91;;;5.60;100.00
73516;BME280;61763;51.416;5.442;2024-02-26T00:58:46;99682.28;;;5.53;100.00
73516;BME280;61763;51.416;5.442;2024-02-26T01:01:12;99683.06;;;5.55;100.00
73516;BME280;61763;51.416;5.442;2024-02-26T01:03:37;99683.28;;;5.50;100.00
73516;BME280;61763;51.416;5.442;2024-02-26T01:06:03;99690.91;;;5.40;100.00
73516;BME280;61763;51.416;5.442;2024-02-26T01:08:28;99690.44;;;5.50;100.00
73516;BME280;61763;51.416;5.442;2024-02-26T01:10:53;99691.97;;;5.36;100.00
73516;BME280;61763;51.416;5.442;2024-02-26T01:13:19;99694.50;;;5.39;100.00
73516;BME280;61763;51.416;5.442;2024-02-26T01:15:44;99687.34;;;5.40;100.00
73516;BME280;61763;51.416;5.442;2024-02-26T01:18:09;99699.00;;;5.39;100.00
73516;BME280;61763;51.416;5.442;2024-02-26T01:20:36;99696.31;;;5.39;100.00
73516;BME280;61763;51.416;5.442;2024-02-26T01:23:03;99698.34;;;5.34;100.00
73516;BME280;61763;51.416;5.442;2024-02-26T01:25:29;99699.34;;;5.31;100.00
73516;BME280;61763;51.416;5.442;2024-02-26T01:27:54;99695.66;;;5.34;100.00
73516;BME280;61763;51.416;5.442;2024-02-26T01:30:19;99709.09;;;5.32;100.00
73516;BME280;61763;51.416;5.442;2024-02-26T01:32:45;99702.66;;;5.17;100.00
73516;BME280;61763;51.416;5.442;2024-02-26T01:35:10;99715.59;;;5.26;100.00
73516;BME280;61763;51.416;5.442;2024-02-26T01:37:38;99708.81;;;5.19;100.00
73516;BME280;61763;51.416;5.442;2024-02-26T01:40:05;99711.69;;;5.15;100.00
73516;BME280;61763;51.416;5.442;2024-02-26T01:42:30;99719.56;;;5.18;100.00
73516;BME280;61763;51.416;5.442;2024-02-26T01:44:57;99716.19;;;5.14;100.00
73516;BME280;61763;51.416;5.442;2024-02-26T01:47:24;99720.53;;;5.17;100.00
73516;BME280;61763;51.416;5.442;2024-02-26T01:49:51;99715.00;;;5.01;100.00
73516;BME280;61763;51.416;5.442;2024-02-26T01:52:19;99715.41;;;4.91;100.00
73516;BME280;61763;51.416;5.442;2024-02-26T01:54:45;99721.50;;;4.95;100.00
73516;BME280;61763;51.416;5.442;2024-02-26T01:57:11;99724.09;;;4.97;100.00
73516;BME280;61763;51.416;5.442;2024-02-26T01:59:38;99722.28;;;4.97;100.00
73516;BME280;61763;51.416;5.442;2024-02-26T02:02:07;99721.03;;;4.85;100.00
73516;BME280;61763;51.416;5.442;2024-02-26T02:04:35;99733.56;;;4.85;100.00
73516;BME280;61763;51.416;5.442;2024-02-26T02:07:01;99729.34;;;4.79;100.00
73516;BME280;61763;51.416;5.442;2024-02-26T02:09:28;99726.94;;;4.73;100.00
73516;BME280;61763;51.416;5.442;2024-02-26T02:11:54;99722.88;;;4.64;100.00
73516;BME280;61763;51.416;5.442;2024-02-26T02:14:19;99716.78;;;4.61;100.00
73516;BME280;61763;51.416;5.442;2024-02-26T02:16:45;99728.22;;;4.64;100.00
73516;BME280;61763;51.416;5.442;2024-02-26T02:19:10;99718.72;;;4.57;100.00
73516;BME280;61763;51.416;5.442;2024-02-26T02:21:36;99718.03;;;4.52;100.00
73516;BME280;61763;51.416;5.442;2024-02-26T02:24:01;99713.72;;;4.49;100.00
73516;BME280;61763;51.416;5.442;2024-02-26T02:26:27;99712.03;;;4.47;100.00
73516;BME280;61763;51.416;5.442;2024-02-26T02:28:52;99715.72;;;4.44;100.00
73516;BME280;61763;51.416;5.442;2024-02-26T02:31:18;99718.19;;;4.49;100.00
73516;BME280;61763;51.416;5.442;2024-02-26T02:33:44;99713.25;;;4.39;100.00
73516;BME280;61763;51.416;5.442;2024-02-26T02:36:09;99717.59;;;4.42;100.00
73516;BME280;61763;51.416;5.442;2024-02-26T02:38:48;99717.44;;;4.45;100.00
73516;BME280;61763;51.416;5.442;2024-02-26T02:41:15;99720.00;;;4.48;100.00
73516;BME280;61763;51.416;5.442;2024-02-26T02:43:40;99718.38;;;4.44;100.00
73516;BME280;61763;51.416;5.442;2024-02-26T02:46:06;99714.78;;;4.45;100.00
73516;BME280;61763;51.416;5.442;2024-02-26T02:48:31;99722.00;;;4.43;100.00
73516;BME280;61763;51.416;5.442;2024-02-26T02:50:56;99730.19;;;4.38;100.00
73516;BME280;61763;51.416;5.442;2024-02-26T02:53:23;99714.22;;;4.37;100.00
73516;BME280;61763;51.416;5.442;2024-02-26T02:55:48;99724.41;;;4.29;100.00
73516;BME280;61763;51.416;5.442;2024-02-26T02:58:14;99726.78;;;4.35;100.00
73516;BME280;61763;51.416;5.442;2024-02-26T03:00:39;99733.75;;;4.39;100.00
73516;BME280;61763;51.416;5.442;2024-02-26T03:03:05;99735.00;;;4.30;100.00
73516;BME280;61763;51.416;5.442;2024-02-26T03:05:30;99734.06;;;4.31;100.00
73516;BME280;61763;51.416;5.442;2024-02-26T03:07:55;99731.38;;;4.31;100.00
73516;BME280;61763;51.416;5.442;2024-02-26T03:10:21;99722.78;;;4.25;100.00
73516;BME280;61763;51.416;5.442;2024-02-26T03:12:46;99727.31;;;4.23;100.00
73516;BME280;61763;51.416;5.442;2024-02-26T03:15:11;99728.97;;;4.25;100.00
73516;BME280;61763;51.416;5.442;2024-02-26T03:17:38;99729.19;;;4.20;100.00
73516;BME280;61763;51.416;5.442;2024-02-26T03:20:04;99740.78;;;4.19;100.00
73516;BME280;61763;51.416;5.442;2024-02-26T03:22:30;99736.25;;;4.21;100.00
73516;BME280;61763;51.416;5.442;2024-02-26T03:24:57;99724.69;;;4.21;100.00
73516;BME280;61763;51.416;5.442;2024-02-26T03:27:22;99731.50;;;4.28;100.00
73516;BME280;61763;51.416;5.442;2024-02-26T03:29:48;99729.25;;;4.19;100.00
73516;BME280;61763;51.416;5.442;2024-02-26T03:32:14;99739.78;;;4.22;100.00
73516;BME280;61763;51.416;5.442;2024-02-26T03:34:39;99734.66;;;4.17;100.00
73516;BME280;61763;51.416;5.442;2024-02-26T03:37:05;99735.50;;;4.18;100.00
73516;BME280;61763;51.416;5.442;2024-02-26T03:39:31;99726.44;;;4.22;100.00
73516;BME280;61763;51.416;5.442;2024-02-26T03:41:57;99741.59;;;4.21;100.00
73516;BME280;61763;51.416;5.442;2024-02-26T03:44:23;99738.75;;;4.26;100.00
73516;BME280;61763;51.416;5.442;2024-02-26T03:46:49;99740.84;;;4.18;100.00
73516;BME280;61763;51.416;5.442;2024-02-26T03:49:14;99743.28;;;4.24;100.00
73516;BME280;61763;51.416;5.442;2024-02-26T03:51:39;99739.06;;;4.18;100.00
73516;BME280;61763;51.416;5.442;2024-02-26T03:54:06;99745.59;;;4.11;100.00
73516;BME280;61763;51.416;5.442;2024-02-26T03:56:32;99745.25;;;4.19;100.00
73516;BME280;61763;51.416;5.442;2024-02-26T03:58:57;99742.91;;;4.11;100.00
73516;BME280;61763;51.416;5.442;2024-02-26T04:01:24;99743.91;;;4.09;100.00
73516;BME280;61763;51.416;5.442;2024-02-26T04:03:50;99742.97;;;4.10;100.00
73516;BME280;61763;51.416;5.442;2024-02-26T04:06:15;99740.31;;;4.10;100.00
73516;BME280;61763;51.416;5.442;2024-02-26T04:08:43;99751.19;;;4.05;100.00
73516;BME280;61763;51.416;5.442;2024-02-26T04:11:08;99748.25;;;4.11;100.00
73516;BME280;61763;51.416;5.442;2024-02-26T04:13:35;99752.09;;;4.04;100.00
73516;BME280;61763;51.416;5.442;2024-02-26T04:16:00;99748.69;;;4.00;100.00
73516;BME280;61763;51.416;5.442;2024-02-26T04:18:28;99751.34;;;4.00;100.00
73516;BME280;61763;51.416;5.442;2024-02-26T04:20:53;99759.00;;;4.10;100.00
73516;BME280;61763;51.416;5.442;2024-02-26T04:23:20;99763.59;;;4.06;100.00
73516;BME280;61763;51.416;5.442;2024-02-26T04:25:46;99754.41;;;4.13;100.00
73516;BME280;61763;51.416;5.442;2024-02-26T04:28:12;99747.69;;;4.03;100.00
73516;BME280;61763;51.416;5.442;2024-02-26T04:30:38;99762.03;;;4.00;100.00
73516;BME280;61763;51.416;5.442;2024-02-26T04:33:03;99761.63;;;4.11;100.00
73516;BME280;61763;51.416;5.442;2024-02-26T04:35:29;99768.19;;;4.02;100.00
73516;BME280;61763;51.416;5.442;2024-02-26T04:37:54;99768.06;;;4.06;100.00
73516;BME280;61763;51.416;5.442;2024-02-26T04:40:19;99765.47;;;4.04;100.00
73516;BME280;61763;51.416;5.442;2024-02-26T04:42:45;99770.09;;;3.99;100.00
73516;BME280;61763;51.416;5.442;2024-02-26T04:45:10;99773.41;;;4.06;100.00
73516;BME280;61763;51.416;5.442;2024-02-26T04:47:36;99772.69;;;4.02;100.00
73516;BME280;61763;51.416;5.442;2024-02-26T04:50:01;99777.13;;;4.01;100.00
73516;BME280;61763;51.416;5.442;2024-02-26T04:52:28;99778.88;;;4.02;100.00
73516;BME280;61763;51.416;5.442;2024-02-26T04:54:54;99783.28;;;4.03;100.00
73516;BME280;61763;51.416;5.442;2024-02-26T04:57:21;99777.25;;;3.98;100.00
73516;BME280;61763;51.416;5.442;2024-02-26T04:59:46;99772.69;;;4.02;100.00
73516;BME280;61763;51.416;5.442;2024-02-26T05:02:13;99779.84;;;4.00;100.00
73516;BME280;61763;51.416;5.442;2024-02-26T05:04:39;99783.56;;;3.96;100.00
73516;BME280;61763;51.416;5.442;2024-02-26T05:07:04;99781.94;;;3.93;100.00
73516;BME280;61763;51.416;5.442;2024-02-26T05:09:30;99780.09;;;3.94;100.00
73516;BME280;61763;51.416;5.442;2024-02-26T05:11:55;99786.44;;;3.91;100.00
73516;BME280;61763;51.416;5.442;2024-02-26T05:14:21;99789.16;;;3.90;100.00
73516;BME280;61763;51.416;5.442;2024-02-26T05:16:47;99790.09;;;3.89;100.00
73516;BME280;61763;51.416;5.442;2024-02-26T05:19:12;99791.91;;;3.88;100.00
73516;BME280;61763;51.416;5.442;2024-02-26T05:21:38;99791.72;;;3.93;100.00
73516;BME280;61763;51.416;5.442;2024-02-26T05:24:04;99789.88;;;3.95;100.00
73516;BME280;61763;51.416;5.442;2024-02-26T05:26:29;99785.56;;;3.91;100.00
73516;BME280;61763;51.416;5.442;2024-02-26T05:28:55;99790.06;;;3.90;100.00
73516;BME280;61763;51.416;5.442;2024-02-26T05:31:25;99794.25;;;3.96;100.00
73516;BME280;61763;51.416;5.442;2024-02-26T05:33:50;99800.59;;;3.93;100.00
73516;BME280;61763;51.416;5.442;2024-02-26T05:36:19;99813.53;;;4.04;100.00
73516;BME280;61763;51.416;5.442;2024-02-26T05:38:46;99804.06;;;3.95;100.00
73516;BME280;61763;51.416;5.442;2024-02-26T05:41:12;99817.41;;;3.95;100.00
73516;BME280;61763;51.416;5.442;2024-02-26T05:43:37;99819.28;;;3.93;100.00
73516;BME280;61763;51.416;5.442;2024-02-26T05:46:03;99819.84;;;4.01;100.00
73516;BME280;61763;51.416;5.442;2024-02-26T05:48:28;99824.56;;;3.95;100.00
73516;BME280;61763;51.416;5.442;2024-02-26T05:50:53;99829.47;;;4.06;100.00
73516;BME280;61763;51.416;5.442;2024-02-26T05:53:19;99833.25;;;4.00;100.00
73516;BME280;61763;51.416;5.442;2024-02-26T05:55:44;99851.56;;;4.09;100.00
73516;BME280;61763;51.416;5.442;2024-02-26T05:58:09;99841.31;;;3.98;100.00
73516;BME280;61763;51.416;5.442;2024-02-26T06:00:35;99856.13;;;4.07;100.00
73516;BME280;61763;51.416;5.442;2024-02-26T06:03:01;99849.66;;;4.13;100.00
73516;BME280;61763;51.416;5.442;2024-02-26T06:05:27;99841.06;;;4.04;100.00
73516;BME280;61763;51.416;5.442;2024-02-26T06:07:52;99840.16;;;4.06;100.00
73516;BME280;61763;51.416;5.442;2024-02-26T06:10:18;99842.09;;;4.02;100.00
73516;BME280;61763;51.416;5.442;2024-02-26T06:12:46;99840.09;;;4.07;100.00
73516;BME280;61763;51.416;5.442;2024-02-26T06:15:11;99846.59;;;4.00;100.00
73516;BME280;61763;51.416;5.442;2024-02-26T06:17:37;99857.94;;;4.07;100.00
73516;BME280;61763;51.416;5.442;2024-02-26T06:20:02;99864.97;;;4.08;100.00
73516;BME280;61763;51.416;5.442;2024-02-26T06:22:30;99859.81;;;4.03;100.00
73516;BME280;61763;51.416;5.442;2024-02-26T06:24:55;99846.72;;;3.97;100.00
73516;BME280;61763;51.416;5.442;2024-02-26T06:27:21;99864.69;;;3.93;100.00
73516;BME280;61763;51.416;5.442;2024-02-26T06:29:47;99864.38;;;4.01;100.00
73516;BME280;61763;51.416;5.442;2024-02-26T06:32:12;99866.34;;;3.96;100.00
73516;BME280;61763;51.416;5.442;2024-02-26T06:34:37;99870.69;;;3.98;100.00
73516;BME280;61763;51.416;5.442;2024-02-26T06:37:05;99874.53;;;3.91;100.00
73516;BME280;61763;51.416;5.442;2024-02-26T06:39:30;99872.44;;;3.99;100.00
73516;BME280;61763;51.416;5.442;2024-02-26T06:41:56;99874.28;;;3.97;100.00
73516;BME280;61763;51.416;5.442;2024-02-26T06:44:26;99870.81;;;3.95;100.00
73516;BME280;61763;51.416;5.442;2024-02-26T06:46:51;99871.00;;;3.91;100.00
73516;BME280;61763;51.416;5.442;2024-02-26T06:49:18;99878.03;;;3.93;100.00
73516;BME280;61763;51.416;5.442;2024-02-26T06:51:43;99877.13;;;3.93;100.00
73516;BME280;61763;51.416;5.442;2024-02-26T06:54:09;99887.81;;;3.93;100.00
73516;BME280;61763;51.416;5.442;2024-02-26T06:56:34;99884.47;;;3.88;100.00
73516;BME280;61763;51.416;5.442;2024-02-26T07:02:46;99904.88;;;3.89;100.00
73516;BME280;61763;51.416;5.442;2024-02-26T07:05:12;99893.28;;;3.90;100.00
73516;BME280;61763;51.416;5.442;2024-02-26T07:07:37;99911.84;;;3.93;100.00
73516;BME280;61763;51.416;5.442;2024-02-26T07:20:09;99936.09;;;3.86;100.00
73516;BME280;61763;51.416;5.442;2024-02-26T07:22:35;99929.78;;;3.89;100.00
73516;BME280;61763;51.416;5.442;2024-02-26T07:25:00;99942.34;;;3.85;100.00
73516;BME280;61763;51.416;5.442;2024-02-26T07:27:25;99939.41;;;3.93;100.00
73516;BME280;61763;51.416;5.442;2024-02-26T07:29:51;99954.84;;;3.85;100.00
73516;BME280;61763;51.416;5.442;2024-02-26T07:32:18;99947.88;;;3.81;100.00
73516;BME280;61763;51.416;5.442;2024-02-26T07:34:43;99954.94;;;3.82;100.00
73516;BME280;61763;51.416;5.442;2024-02-26T07:37:10;99959.44;;;3.81;100.00
73516;BME280;61763;51.416;5.442;2024-02-26T07:39:35;99952.16;;;3.85;100.00
73516;BME280;61763;51.416;5.442;2024-02-26T07:42:02;99966.31;;;3.87;100.00
73516;BME280;61763;51.416;5.442;2024-02-26T07:44:27;99960.66;;;3.96;100.00
73516;BME280;61763;51.416;5.442;2024-02-26T07:46:53;99969.00;;;3.87;100.00
73516;BME280;61763;51.416;5.442;2024-02-26T07:49:18;99967.22;;;3.88;100.00
73516;BME280;61763;51.416;5.442;2024-02-26T07:51:44;99960.19;;;3.85;100.00
73516;BME280;61763;51.416;5.442;2024-02-26T07:54:09;99976.25;;;3.83;100.00
73516;BME280;61763;51.416;5.442;2024-02-26T07:56:34;99983.34;;;3.84;100.00
73516;BME280;61763;51.416;5.442;2024-02-26T07:59:00;99981.47;;;3.86;100.00
73516;BME280;61763;51.416;5.442;2024-02-26T08:01:25;99985.19;;;3.82;100.00
73516;BME280;61763;51.416;5.442;2024-02-26T08:03:53;99990.63;;;3.79;100.00
73516;BME280;61763;51.416;5.442;2024-02-26T08:06:18;99993.13;;;3.84;100.00
73516;BME280;61763;51.416;5.442;2024-02-26T08:08:43;99985.41;;;3.76;100.00
73516;BME280;61763;51.416;5.442;2024-02-26T08:11:09;99995.28;;;3.74;100.00
73516;BME280;61763;51.416;5.442;2024-02-26T08:13:34;99999.34;;;3.84;100.00
73516;BME280;61763;51.416;5.442;2024-02-26T08:16:01;100001.84;;;3.89;100.00
73516;BME280;61763;51.416;5.442;2024-02-26T08:18:26;99998.34;;;3.87;100.00
73516;BME280;61763;51.416;5.442;2024-02-26T08:20:51;100003.56;;;3.92;100.00
73516;BME280;61763;51.416;5.442;2024-02-26T08:23:17;100015.25;;;3.88;100.00
73516;BME280;61763;51.416;5.442;2024-02-26T08:25:42;100014.47;;;3.84;100.00
73516;BME280;61763;51.416;5.442;2024-02-26T08:28:08;100015.47;;;3.81;100.00
73516;BME280;61763;51.416;5.442;2024-02-26T08:30:33;100034.84;;;3.86;100.00
73516;BME280;61763;51.416;5.442;2024-02-26T08:32:59;100027.56;;;3.92;100.00
73516;BME280;61763;51.416;5.442;2024-02-26T08:35:24;100026.84;;;3.86;100.00
73516;BME280;61763;51.416;5.442;2024-02-26T08:37:50;100030.31;;;3.90;100.00
73516;BME280;61763;51.416;5.442;2024-02-26T08:40:15;100034.56;;;3.94;100.00
73516;BME280;61763;51.416;5.442;2024-02-26T08:42:41;100046.25;;;3.92;100.00
73516;BME280;61763;51.416;5.442;2024-02-26T08:45:07;100042.66;;;3.93;100.00
73516;BME280;61763;51.416;5.442;2024-02-26T08:47:33;100037.41;;;3.90;100.00
73516;BME280;61763;51.416;5.442;2024-02-26T08:49:59;100040.03;;;3.91;100.00
73516;BME280;61763;51.416;5.442;2024-02-26T08:52:24;100032.84;;;3.93;100.00
73516;BME280;61763;51.416;5.442;2024-02-26T08:54:49;100047.47;;;3.83;100.00
73516;BME280;61763;51.416;5.442;2024-02-26T08:57:15;100053.38;;;3.91;100.00
73516;BME280;61763;51.416;5.442;2024-02-26T08:59:41;100052.84;;;3.81;100.00
73516;BME280;61763;51.416;5.442;2024-02-26T09:02:07;100070.34;;;3.90;100.00
73516;BME280;61763;51.416;5.442;2024-02-26T09:04:33;100064.28;;;3.85;100.00
73516;BME280;61763;51.416;5.442;2024-02-26T09:06:59;100066.66;;;3.93;100.00
73516;BME280;61763;51.416;5.442;2024-02-26T09:09:24;100069.34;;;3.93;100.00
73516;BME280;61763;51.416;5.442;2024-02-26T09:11:51;100066.03;;;3.86;100.00
73516;BME280;61763;51.416;5.442;2024-02-26T09:14:18;100065.03;;;3.89;100.00
73516;BME280;61763;51.416;5.442;2024-02-26T09:16:43;100084.44;;;3.94;100.00
73516;BME280;61763;51.416;5.442;2024-02-26T09:19:08;100070.34;;;3.90;100.00
73516;BME280;61763;51.416;5.442;2024-02-26T09:21:34;100070.47;;;3.85;100.00
73516;BME280;61763;51.416;5.442;2024-02-26T09:23:59;100083.88;;;3.84;100.00
73516;BME280;61763;51.416;5.442;2024-02-26T09:26:25;100090.13;;;3.84;100.00
73516;BME280;61763;51.416;5.442;2024-02-26T09:28:50;100096.16;;;3.90;100.00
73516;BME280;61763;51.416;5.442;2024-02-26T09:31:17;100092.66;;;3.88;100.00
73516;BME280;61763;51.416;5.442;2024-02-26T09:33:43;100100.69;;;3.88;100.00
73516;BME280;61763;51.416;5.442;2024-02-26T09:36:08;100105.13;;;3.87;100.00
73516;BME280;61763;51.416;5.442;2024-02-26T09:38:36;100107.44;;;3.98;100.00
73516;BME280;61763;51.416;5.442;2024-02-26T09:41:06;100118.41;;;3.90;100.00
73516;BME280;61763;51.416;5.442;2024-02-26T09:43:35;100107.78;;;3.87;100.00
73516;BME280;61763;51.416;5.442;2024-02-26T09:46:01;100116.53;;;3.92;100.00
73516;BME280;61763;51.416;5.442;2024-02-26T09:48:29;100118.34;;;3.92;100.00
73516;BME280;61763;51.416;5.442;2024-02-26T09:50:54;100121.88;;;3.92;100.00
73516;BME280;61763;51.416;5.442;2024-02-26T09:53:21;100123.47;;;3.98;100.00
73516;BME280;61763;51.416;5.442;2024-02-26T09:55:47;100125.41;;;3.93;100.00
73516;BME280;61763;51.416;5.442;2024-02-26T09:58:12;100125.09;;;4.02;100.00
73516;BME280;61763;51.416;5.442;2024-02-26T10:00:51;100136.09;;;3.93;100.00
73516;BME280;61763;51.416;5.442;2024-02-26T10:03:21;100141.41;;;3.93;100.00
73516;BME280;61763;51.416;5.442;2024-02-26T10:05:50;100135.72;;;4.03;100.00
73516;BME280;61763;51.416;5.442;2024-02-26T10:08:16;100147.44;;;3.99;100.00
73516;BME280;61763;51.416;5.442;2024-02-26T10:10:44;100143.06;;;3.97;100.00
73516;BME280;61763;51.416;5.442;2024-02-26T10:13:10;100158.97;;;4.00;100.00
73516;BME280;61763;51.416;5.442;2024-02-26T10:15:37;100156.25;;;4.01;100.00
73516;BME280;61763;51.416;5.442;2024-02-26T10:18:06;100165.28;;;3.97;100.00
73516;BME280;61763;51.416;5.442;2024-02-26T10:20:32;100168.69;;;4.02;100.00
73516;BME280;61763;51.416;5.442;2024-02-26T10:22:58;100175.84;;;4.02;100.00
73516;BME280;61763;51.416;5.442;2024-02-26T10:25:23;100179.22;;;4.07;100.00
73516;BME280;61763;51.416;5.442;2024-02-26T10:27:49;100194.41;;;4.05;100.00
73516;BME280;61763;51.416;5.442;2024-02-26T10:30:19;100184.53;;;4.07;100.00
73516;BME280;61763;51.416;5.442;2024-02-26T10:32:46;100184.34;;;4.13;100.00
73516;BME280;61763;51.416;5.442;2024-02-26T10:35:13;100187.97;;;4.11;100.00
73516;BME280;61763;51.416;5.442;2024-02-26T10:37:40;100194.25;;;4.10;100.00
73516;BME280;61763;51.416;5.442;2024-02-26T10:40:06;100201.31;;;4.11;100.00
73516;BME280;61763;51.416;5.442;2024-02-26T10:42:31;100197.69;;;4.13;100.00
73516;BME280;61763;51.416;5.442;2024-02-26T10:44:58;100203.03;;;4.13;100.00
73516;BME280;61763;51.416;5.442;2024-02-26T10:47:24;100214.69;;;4.11;100.00
73516;BME280;61763;51.416;5.442;2024-02-26T10:49:50;100217.34;;;4.11;100.00
73516;BME280;61763;51.416;5.442;2024-02-26T10:52:18;100223.78;;;4.05;100.00
73516;BME280;61763;51.416;5.442;2024-02-26T10:54:47;100231.53;;;4.13;100.00
73516;BME280;61763;51.416;5.442;2024-02-26T10:57:13;100238.06;;;4.04;100.00
73516;BME280;61763;51.416;5.442;2024-02-26T10:59:39;100238.75;;;4.09;100.00
73516;BME280;61763;51.416;5.442;2024-02-26T11:02:08;100228.25;;;4.04;100.00
73516;BME280;61763;51.416;5.442;2024-02-26T11:04:35;100237.25;;;4.02;100.00
73516;BME280;61763;51.416;5.442;2024-02-26T11:07:01;100253.22;;;4.03;100.00
73516;BME280;61763;51.416;5.442;2024-02-26T11:09:27;100247.66;;;4.10;100.00
73516;BME280;61763;51.416;5.442;2024-02-26T11:11:53;100255.88;;;4.03;100.00
73516;BME280;61763;51.416;5.442;2024-02-26T11:14:20;100251.31;;;4.07;100.00
73516;BME280;61763;51.416;5.442;2024-02-26T11:16:47;100257.47;;;4.09;100.00
73516;BME280;61763;51.416;5.442;2024-02-26T11:19:13;100249.56;;;4.06;100.00
73516;BME280;61763;51.416;5.442;2024-02-26T11:21:39;100265.41;;;4.11;100.00
73516;BME280;61763;51.416;5.442;2024-02-26T11:24:08;100266.38;;;4.10;100.00
73516;BME280;61763;51.416;5.442;2024-02-26T11:26:39;100270.59;;;4.17;100.00
73516;BME280;61763;51.416;5.442;2024-02-26T11:29:09;100268.97;;;4.11;100.00
73516;BME280;61763;51.416;5.442;2024-02-26T11:31:37;100268.97;;;4.11;100.00
73516;BME280;61763;51.416;5.442;2024-02-26T11:34:03;100271.66;;;4.11;100.00
73516;BME280;61763;51.416;5.442;2024-02-26T11:36:28;100278.13;;;4.04;100.00
73516;BME280;61763;51.416;5.442;2024-02-26T11:38:55;100279.06;;;4.01;100.00
73516;BME280;61763;51.416;5.442;2024-02-26T11:41:20;100274.31;;;4.11;100.00
73516;BME280;61763;51.416;5.442;2024-02-26T11:44:00;100278.91;;;4.06;100.00
73516;BME280;61763;51.416;5.442;2024-02-26T11:46:40;100286.06;;;4.06;100.00
73516;BME280;61763;51.416;5.442;2024-02-26T11:51:53;100275.59;;;4.26;100.00
73516;BME280;61763;51.416;5.442;2024-02-26T11:54:38;100271.59;;;4.13;100.00
73516;BME280;61763;51.416;5.442;2024-02-26T11:57:04;100284.00;;;4.15;100.00
73516;BME280;61763;51.416;5.442;2024-02-26T11:59:39;100287.56;;;4.14;100.00
73516;BME280;61763;51.416;5.442;2024-02-26T12:02:04;100284.75;;;4.19;100.00
73516;BME280;61763;51.416;5.442;2024-02-26T12:04:30;100301.75;;;4.16;100.00
73516;BME280;61763;51.416;5.442;2024-02-26T12:06:57;100288.34;;;4.18;100.00
73516;BME280;61763;51.416;5.442;2024-02-26T12:09:38;100296.28;;;4.19;100.00
73516;BME280;61763;51.416;5.442;2024-02-26T12:14:33;100295.59;;;4.14;100.00
73516;BME280;61763;51.416;5.442;2024-02-26T12:16:59;100300.00;;;4.15;100.00
73516;BME280;61763;51.416;5.442;2024-02-26T12:19:24;100302.69;;;4.15;100.00
73516;BME280;61763;51.416;5.442;2024-02-26T12:21:53;100316.84;;;4.17;100.00
73516;BME280;61763;51.416;5.442;2024-02-26T12:24:22;100315.19;;;4.13;100.00
73516;BME280;61763;51.416;5.442;2024-02-26T12:26:47;100316.03;;;4.15;100.00
73516;BME280;61763;51.416;5.442;2024-02-26T12:29:13;100314.06;;;4.20;100.00
73516;BME280;61763;51.416;5.442;2024-02-26T12:31:40;100320.22;;;4.24;100.00
73516;BME280;61763;51.416;5.442;2024-02-26T12:34:06;100329.91;;;4.27;100.00
73516;BME280;61763;51.416;5.442;2024-02-26T12:36:33;100328.81;;;4.32;100.00
73516;BME280;61763;51.416;5.442;2024-02-26T12:39:00;100336.94;;;4.29;100.00
73516;BME280;61763;51.416;5.442;2024-02-26T12:41:27;100329.78;;;4.30;100.00
73516;BME280;61763;51.416;5.442;2024-02-26T12:43:53;100338.59;;;4.33;100.00
73516;BME280;61763;51.416;5.442;2024-02-26T12:46:18;100339.41;;;4.35;100.00
73516;BME280;61763;51.416;5.442;2024-02-26T12:48:44;100350.88;;;4.39;100.00
73516;BME280;61763;51.416;5.442;2024-02-26T12:51:11;100342.91;;;4.37;100.00
73516;BME280;61763;51.416;5.442;2024-02-26T12:53:38;100346.34;;;4.41;100.00
73516;BME280;61763;51.416;5.442;2024-02-26T12:56:06;100362.50;;;4.38;100.00
73516;BME280;61763;51.416;5.442;2024-02-26T12:58:33;100360.56;;;4.42;100.00
73516;BME280;61763;51.416;5.442;2024-02-26T13:00:59;100371.38;;;4.38;100.00
73516;BME280;61763;51.416;5.442;2024-02-26T13:03:25;100366.97;;;4.37;100.00
73516;BME280;61763;51.416;5.442;2024-02-26T13:05:52;100366.13;;;4.35;100.00
73516;BME280;61763;51.416;5.442;2024-02-26T13:08:21;100381.19;;;4.38;100.00
73516;BME280;61763;51.416;5.442;2024-02-26T13:10:47;100377.59;;;4.39;100.00